AIQ614 VTBD-VDSA
Flight info
| Callsign | AIQ614 |
|---|---|
| Flight time | N/A |
| Altitude | 33000 |
| Route | GORSI3C GORSI N506 GOMES B204 AGEDO ALBEB1B |
| Aircraft | A20N/M-SDE2E3FGHIRWXY/LB1 |
Departure
| Time | 2026-05-08 08:39 |
|---|---|
| Airport | Don Mueang International Airport (VTBD) |
Arrival
| Time | N/A |
|---|---|
| Airport | Siem Reap-Angkor International Airport (VDSA) |
| Time | Latitude | Longitude | Altitude | Speed | Heading |
|---|---|---|---|---|---|
| 2026-05-08 08:01 | 13.92669 | 100.60908 | 17 ft | 0 kts | 118° |
| 2026-05-08 08:32 | 13.92676 | 100.60895 | 17 ft | 2 kts | 118° |
| 2026-05-08 08:32 | 13.92684 | 100.60880 | 17 ft | 2 kts | 137° |
| 2026-05-08 08:33 | 13.92696 | 100.60868 | 19 ft | 2 kts | 122° |
| 2026-05-08 08:33 | 13.92702 | 100.60852 | 17 ft | 2 kts | 70° |
| 2026-05-08 08:33 | 13.92692 | 100.60840 | 18 ft | 2 kts | 27° |
| 2026-05-08 08:33 | 13.92682 | 100.60835 | 19 ft | 0 kts | 28° |
| 2026-05-08 08:36 | 13.92686 | 100.60837 | 19 ft | 3 kts | 28° |
| 2026-05-08 08:36 | 13.92724 | 100.60858 | 17 ft | 9 kts | 28° |
| 2026-05-08 08:36 | 13.92739 | 100.60928 | 17 ft | 13 kts | 117° |
| 2026-05-08 08:37 | 13.92690 | 100.61021 | 19 ft | 16 kts | 118° |
| 2026-05-08 08:37 | 13.92629 | 100.61133 | 18 ft | 20 kts | 120° |
| 2026-05-08 08:37 | 13.92557 | 100.61267 | 17 ft | 23 kts | 118° |
| 2026-05-08 08:37 | 13.92484 | 100.61402 | 16 ft | 18 kts | 118° |
| 2026-05-08 08:38 | 13.92426 | 100.61507 | 14 ft | 16 kts | 135° |
| 2026-05-08 08:38 | 13.92345 | 100.61494 | 14 ft | 10 kts | 206° |
| 2026-05-08 08:38 | 13.92337 | 100.61490 | 14 ft | 0 kts | 210° |
| 2026-05-08 08:38 | 13.92218 | 100.61421 | 16 ft | 49 kts | 207° |
| 2026-05-08 08:39 | 13.91724 | 100.61143 | 20 ft | 110 kts | 209° |
| 2026-05-08 08:39 | 13.90903 | 100.60687 | 48 ft | 153 kts | 208° |
| 2026-05-08 08:39 | 13.89947 | 100.60176 | 514 ft | 157 kts | 206° |
| 2026-05-08 08:39 | 13.88970 | 100.59652 | 1013 ft | 162 kts | 207° |
| 2026-05-08 08:40 | 13.87974 | 100.59088 | 1611 ft | 163 kts | 208° |
| 2026-05-08 08:40 | 13.86961 | 100.58508 | 2057 ft | 178 kts | 207° |
| 2026-05-08 08:40 | 13.85817 | 100.57864 | 2452 ft | 198 kts | 207° |
| 2026-05-08 08:40 | 13.84532 | 100.57148 | 2870 ft | 219 kts | 207° |
| 2026-05-08 08:41 | 13.83176 | 100.56395 | 3726 ft | 222 kts | 207° |
| 2026-05-08 08:41 | 13.81898 | 100.55435 | 4438 ft | 239 kts | 231° |
| 2026-05-08 08:41 | 13.81100 | 100.53856 | 4967 ft | 261 kts | 252° |
| 2026-05-08 08:41 | 13.80608 | 100.51975 | 5528 ft | 282 kts | 257° |
| 2026-05-08 08:42 | 13.80181 | 100.50007 | 6367 ft | 288 kts | 257° |
| 2026-05-08 08:42 | 13.79718 | 100.47985 | 7257 ft | 292 kts | 256° |
| 2026-05-08 08:42 | 13.79211 | 100.45953 | 8169 ft | 295 kts | 255° |
| 2026-05-08 08:42 | 13.78472 | 100.43984 | 9050 ft | 298 kts | 236° |
| 2026-05-08 08:43 | 13.77033 | 100.42461 | 9884 ft | 299 kts | 211° |
| 2026-05-08 08:43 | 13.75102 | 100.41657 | 10491 ft | 310 kts | 189° |
| 2026-05-08 08:43 | 13.72881 | 100.41622 | 10757 ft | 330 kts | 172° |
| 2026-05-08 08:43 | 13.70579 | 100.42013 | 11124 ft | 346 kts | 168° |
| 2026-05-08 08:44 | 13.68206 | 100.42499 | 11895 ft | 349 kts | 163° |
| 2026-05-08 08:44 | 13.65996 | 100.43517 | 12685 ft | 351 kts | 146° |
| 2026-05-08 08:44 | 13.64189 | 100.45211 | 13468 ft | 354 kts | 127° |
| 2026-05-08 08:44 | 13.63024 | 100.47442 | 14167 ft | 359 kts | 108° |
| 2026-05-08 08:45 | 13.62496 | 100.49958 | 14803 ft | 363 kts | 101° |
| 2026-05-08 08:45 | 13.62050 | 100.52536 | 15454 ft | 368 kts | 101° |
| 2026-05-08 08:45 | 13.61604 | 100.55141 | 16111 ft | 373 kts | 101° |
| 2026-05-08 08:45 | 13.61145 | 100.57779 | 16695 ft | 377 kts | 101° |
| 2026-05-08 08:46 | 13.60680 | 100.60412 | 17275 ft | 381 kts | 101° |
| 2026-05-08 08:46 | 13.60067 | 100.63072 | 17842 ft | 384 kts | 112° |
| 2026-05-08 08:46 | 13.58778 | 100.65476 | 18352 ft | 386 kts | 129° |
| 2026-05-08 08:46 | 13.56850 | 100.67387 | 18874 ft | 387 kts | 146° |
| 2026-05-08 08:47 | 13.54461 | 100.68643 | 19385 ft | 389 kts | 162° |
| 2026-05-08 08:47 | 13.52775 | 100.69058 | 19702 ft | 391 kts | 172° |